Cropseyville, New York
Current Conditions -  °F | °C
As of 11:15 AM on Tuesday 21 Oct 2014 (Local Time) from KALB Reporting Station
Light Rain Light Rain  
Wind Chill: 50°   Ceiling: 400
Heat Index: 50°   Visibility: 3mi
Dew Point: 47°   Wind: 3mph
Humidity: 89%   Direction: 100°E
Pressure: 29.94"   Gusts: NA
Location:  42.75°N, 73.56°W
Report Text: KALB 211515Z 10003KT 3SM -RA BR BKN004 BKN033 OVC065 10/08 A2994 RMK AO2 BKN004 V SCT VIS N 2 P0000 T01000083
Loading
Personal Weather Stations






























Interactive Weather Map
Tropical Storm Tracking
New forecast layout! Learn more

10-Day Weather Forecast

Advertisements
Track Severe Weather on mobile